createdAt,value
2023-05-22T00:04:24.268Z,7.70
2023-05-22T00:09:27.037Z,13.30
2023-05-22T00:14:29.789Z,8.20
2023-05-22T00:19:33.254Z,8.90
2023-05-22T00:24:36.214Z,9.40
2023-05-22T00:30:10.866Z,9.30
2023-05-22T00:35:13.700Z,10.60
2023-05-22T00:40:16.761Z,10.20
2023-05-22T00:45:19.545Z,8.70
2023-05-22T00:50:22.776Z,10.60
2023-05-22T00:55:25.710Z,8.40
2023-05-22T01:00:28.826Z,9.50
2023-05-22T01:05:32.145Z,8.20
2023-05-22T01:10:38.177Z,8.90
2023-05-22T01:15:53.883Z,9.30
2023-05-22T01:21:10.293Z,9.10
2023-05-22T01:26:31.982Z,8.00
2023-05-22T01:31:39.650Z,6.10
2023-05-22T01:36:42.690Z,8.50
2023-05-22T01:41:46.104Z,6.30
2023-05-22T01:46:48.927Z,8.10
2023-05-22T01:51:58.971Z,11.80
2023-05-22T01:57:47.246Z,7.60
2023-05-22T02:02:57.045Z,8.20
2023-05-22T02:08:00.829Z,10.10
2023-05-22T02:13:04.455Z,9.00
2023-05-22T02:18:13.138Z,9.50
2023-05-22T02:23:16.131Z,7.90
2023-05-22T02:28:18.932Z,8.80
2023-05-22T02:33:22.127Z,10.50
2023-05-22T02:38:24.994Z,8.90
2023-05-22T02:43:28.258Z,8.40
2023-05-22T02:48:31.117Z,7.50
2023-05-22T02:53:35.426Z,8.00
2023-05-22T02:58:40.024Z,8.50
2023-05-22T03:03:43.773Z,7.60
2023-05-22T03:08:48.724Z,7.90
2023-05-22T03:13:51.591Z,7.70
2023-05-22T03:19:16.661Z,8.10
2023-05-22T03:24:19.562Z,8.60
2023-05-22T03:29:22.654Z,8.60
2023-05-22T03:34:27.290Z,10.40
2023-05-22T03:39:30.285Z,9.70
2023-05-22T03:44:33.185Z,13.30
2023-05-22T03:49:36.067Z,13.50
2023-05-22T03:54:39.003Z,8.20
2023-05-22T03:59:41.868Z,12.50
2023-05-22T04:04:47.581Z,12.00
2023-05-22T04:09:50.567Z,11.00
2023-05-22T04:14:53.352Z,9.70
2023-05-22T04:19:58.260Z,10.90
2023-05-22T04:25:01.197Z,13.10
2023-05-22T04:30:06.156Z,9.70
2023-05-22T04:35:12.927Z,9.40
2023-05-22T04:40:15.788Z,9.60
2023-05-22T04:45:19.630Z,8.80
2023-05-22T04:50:24.136Z,9.30
2023-05-22T04:55:27.421Z,8.00
2023-05-22T05:00:30.854Z,11.40
2023-05-22T05:05:35.162Z,8.30
2023-05-22T05:10:38.319Z,5.70
2023-05-22T05:15:41.429Z,7.40
2023-05-22T05:20:44.363Z,12.20
2023-05-22T05:25:47.217Z,7.60
2023-05-22T05:30:50.434Z,9.20
2023-05-22T05:35:53.699Z,8.90
2023-05-22T05:40:56.579Z,6.90
2023-05-22T05:45:59.951Z,8.20
2023-05-22T05:51:02.914Z,9.30
2023-05-22T05:56:07.669Z,7.00
2023-05-22T06:01:11.837Z,7.70
2023-05-22T06:06:15.411Z,7.40
2023-05-22T06:11:18.298Z,9.80
2023-05-22T06:16:21.216Z,9.50
2023-05-22T06:21:25.358Z,7.60
2023-05-22T06:26:28.598Z,7.40
2023-05-22T06:31:35.356Z,5.90
2023-05-22T06:36:38.455Z,5.60
2023-05-22T06:41:41.305Z,7.10
2023-05-22T06:46:44.122Z,8.40
2023-05-22T06:51:47.130Z,6.70
2023-05-22T06:56:49.956Z,7.00
2023-05-22T07:01:53.920Z,8.30
2023-05-22T07:06:56.760Z,8.20
2023-05-22T07:11:59.615Z,7.40
2023-05-22T07:17:02.552Z,9.20
2023-05-22T07:22:05.653Z,8.40
2023-05-22T07:27:09.329Z,10.50
2023-05-22T07:32:12.272Z,6.80
2023-05-22T07:37:15.394Z,5.50
2023-05-22T07:42:18.343Z,4.80
2023-05-22T07:47:21.277Z,8.70
2023-05-22T07:52:24.278Z,5.30
2023-05-22T07:57:27.326Z,5.20
2023-05-22T08:02:30.305Z,10.00
2023-05-22T08:07:33.434Z,6.40
2023-05-22T08:12:36.465Z,5.50
2023-05-22T08:17:39.314Z,5.40
2023-05-22T08:22:42.473Z,5.90
2023-05-22T08:27:45.296Z,8.20
2023-05-22T08:32:48.177Z,4.90
2023-05-22T08:37:51.693Z,5.30
2023-05-22T08:42:55.108Z,6.10
2023-05-22T08:47:58.141Z,8.40
2023-05-22T08:53:04.563Z,4.40
2023-05-22T08:58:07.331Z,3.50
2023-05-22T09:03:14.091Z,4.50
2023-05-22T09:08:20.867Z,5.70
2023-05-22T09:13:29.198Z,3.50
2023-05-22T09:19:12.413Z,5.20
2023-05-22T09:24:50.581Z,6.30
2023-05-22T09:31:25.282Z,3.60
2023-05-22T09:43:08.196Z,5.00
2023-05-22T09:48:12.716Z,5.60
2023-05-22T09:53:16.642Z,4.20
2023-05-22T09:58:20.254Z,5.50
2023-05-22T10:03:24.760Z,4.50
2023-05-22T10:08:35.969Z,4.60
2023-05-22T10:13:38.715Z,5.50
2023-05-22T10:18:41.658Z,3.90
2023-05-22T10:23:44.561Z,3.00
2023-05-22T10:28:57.382Z,9.20
2023-05-22T10:34:01.083Z,3.90
2023-05-22T10:39:34.329Z,4.00
2023-05-22T10:44:37.114Z,5.90
2023-05-22T10:49:46.850Z,6.70
2023-05-22T10:54:53.657Z,9.10
2023-05-22T11:00:13.203Z,3.80
2023-05-22T11:05:19.029Z,4.30
2023-05-22T11:10:27.878Z,5.40
2023-05-22T11:15:32.607Z,6.90
2023-05-22T11:20:37.675Z,5.00
2023-05-22T11:25:41.369Z,3.30
2023-05-22T11:30:45.022Z,5.60
2023-05-22T11:35:48.061Z,4.10
2023-05-22T11:40:51.973Z,7.60
2023-05-22T11:45:55.016Z,5.80
2023-05-22T11:50:58.247Z,5.20
2023-05-22T11:56:07.375Z,3.40
2023-05-22T12:01:10.261Z,6.20
2023-05-22T12:06:14.512Z,3.20
2023-05-22T12:11:19.347Z,2.80
2023-05-22T12:16:22.970Z,4.10
2023-05-22T12:21:27.030Z,2.90
2023-05-22T12:26:30.028Z,2.10
2023-05-22T12:31:37.456Z,2.80
2023-05-22T12:36:44.881Z,2.80
2023-05-22T12:41:47.816Z,2.20
2023-05-22T12:46:52.222Z,3.70
2023-05-22T12:51:55.131Z,3.00
2023-05-22T12:56:58.035Z,6.80
2023-05-22T13:02:03.225Z,5.70
2023-05-22T13:07:06.348Z,4.30
2023-05-22T13:12:11.283Z,2.30
2023-05-22T13:22:18.372Z,3.20
2023-05-22T13:27:21.269Z,4.60
2023-05-22T13:32:24.942Z,2.20
2023-05-22T13:37:27.874Z,4.20
2023-05-22T13:42:30.932Z,2.40
2023-05-22T13:47:33.955Z,3.60
2023-05-22T13:52:37.028Z,3.20
2023-05-22T13:57:44.787Z,3.00
2023-05-22T14:02:48.424Z,4.40
2023-05-22T14:07:51.530Z,3.40
2023-05-22T14:12:54.922Z,2.90
2023-05-22T14:17:57.850Z,3.70
2023-05-22T14:23:00.598Z,3.50
2023-05-22T14:28:03.708Z,4.00
2023-05-22T14:33:06.686Z,2.00
2023-05-22T14:38:09.501Z,4.80
2023-05-22T14:43:12.318Z,2.80
2023-05-22T14:48:15.694Z,2.00
2023-05-22T14:53:18.492Z,2.40
2023-05-22T14:58:21.319Z,2.80
2023-05-22T15:03:24.310Z,7.40
2023-05-22T15:08:27.116Z,3.60
2023-05-22T15:13:30.240Z,2.90
2023-05-22T15:18:33.127Z,2.50
2023-05-22T15:23:40.966Z,3.10
2023-05-22T15:28:43.794Z,3.70
2023-05-22T15:33:46.936Z,5.00
2023-05-22T15:38:49.805Z,3.20
2023-05-22T15:43:53.431Z,2.70
2023-05-22T15:48:56.232Z,4.20
2023-05-22T15:53:58.991Z,3.30
2023-05-22T15:59:01.814Z,2.50
2023-05-22T16:04:06.126Z,4.10
2023-05-22T16:09:10.088Z,2.60
2023-05-22T16:14:13.195Z,4.90
2023-05-22T16:19:16.354Z,3.20
2023-05-22T16:24:19.133Z,3.00
2023-05-22T16:29:21.911Z,3.60
2023-05-22T16:34:24.875Z,4.20
2023-05-22T16:39:27.651Z,2.60
2023-05-22T16:44:31.188Z,2.00
2023-05-22T16:49:33.980Z,2.70
2023-05-22T16:54:37.643Z,2.90
2023-05-22T16:59:41.320Z,3.30
2023-05-22T17:04:44.446Z,3.30
2023-05-22T17:09:47.281Z,4.50
2023-05-22T17:14:50.231Z,2.30
2023-05-22T17:19:53.445Z,2.50
2023-05-22T17:24:56.268Z,4.60
2023-05-22T17:29:59.282Z,3.80
2023-05-22T17:35:02.314Z,4.90
2023-05-22T17:40:07.597Z,3.00
2023-05-22T17:45:10.722Z,3.40
2023-05-22T17:50:13.563Z,4.20
2023-05-22T17:55:16.429Z,4.40
2023-05-22T18:00:19.753Z,4.00
2023-05-22T18:05:23.800Z,4.80
2023-05-22T18:10:26.633Z,4.70
2023-05-22T18:15:29.614Z,3.60
2023-05-22T18:20:33.449Z,4.00
2023-05-22T18:25:36.726Z,5.10
2023-05-22T18:30:39.922Z,7.60
2023-05-22T18:35:42.907Z,5.50
2023-05-22T18:40:47.301Z,5.20
2023-05-22T18:45:51.275Z,4.10
2023-05-22T18:50:55.709Z,6.80
2023-05-22T18:55:58.634Z,6.80
2023-05-22T19:01:03.002Z,3.70
2023-05-22T19:06:06.396Z,6.30
2023-05-22T19:11:09.354Z,5.50
2023-05-22T19:16:13.786Z,5.00
2023-05-22T19:21:17.832Z,5.30
2023-05-22T19:26:21.015Z,5.00
2023-05-22T19:31:31.518Z,5.10
2023-05-22T19:36:34.781Z,7.70
2023-05-22T19:41:38.664Z,5.70
2023-05-22T19:46:41.522Z,7.70
2023-05-22T19:51:46.184Z,8.50
2023-05-22T19:56:49.123Z,5.10
2023-05-22T20:01:53.727Z,5.70
2023-05-22T20:06:58.757Z,6.50
2023-05-22T20:12:02.685Z,5.60
2023-05-22T20:17:06.968Z,7.80
2023-05-22T20:22:09.791Z,7.40
2023-05-22T20:27:14.240Z,6.70
2023-05-22T20:32:17.399Z,7.10
2023-05-22T20:37:21.130Z,11.30
2023-05-22T20:42:26.442Z,7.50
2023-05-22T20:47:29.274Z,6.40
2023-05-22T20:52:32.162Z,6.70
2023-05-22T20:57:35.792Z,6.60
2023-05-22T21:02:41.271Z,5.70
2023-05-22T21:07:44.087Z,9.10
2023-05-22T21:12:47.015Z,11.40
2023-05-22T21:17:49.882Z,11.40
2023-05-22T21:22:52.694Z,7.80
2023-05-22T21:27:55.910Z,9.40
2023-05-22T21:33:31.617Z,11.00
2023-05-22T21:38:34.402Z,9.40
2023-05-22T21:51:21.783Z,7.80
2023-05-22T21:56:26.984Z,10.70
2023-05-22T22:01:29.773Z,7.10
2023-05-22T22:06:32.634Z,6.60
2023-05-22T22:11:35.725Z,6.70
2023-05-22T22:16:40.582Z,9.60
2023-05-22T22:21:45.509Z,7.90
2023-05-22T22:26:49.408Z,9.00
2023-05-22T22:31:53.044Z,8.00
2023-05-22T22:36:57.483Z,8.40
2023-05-22T22:42:04.186Z,8.20
2023-05-22T22:47:07.564Z,9.70
2023-05-22T22:52:10.533Z,8.50
2023-05-22T22:57:15.491Z,7.50
2023-05-22T23:02:18.341Z,9.80
2023-05-22T23:07:24.027Z,7.90
2023-05-22T23:12:26.933Z,8.20
2023-05-22T23:17:30.419Z,9.70
2023-05-22T23:22:33.390Z,7.50
2023-05-22T23:27:39.341Z,8.10
2023-05-22T23:32:42.300Z,8.50
2023-05-22T23:37:45.507Z,10.10
2023-05-22T23:42:48.479Z,8.30
2023-05-22T23:47:51.499Z,9.60
2023-05-22T23:52:54.552Z,9.30
2023-05-22T23:57:57.487Z,8.10
